sensor_id;sensor_type;location;lat;lon;timestamp;pressure;altitude;pressure_sealevel;temperature;humidity
46782;BME280;32541;46.298;11.506;2023-07-20T00:00:44;89382.56;;;15.57;98.85
46782;BME280;32541;46.298;11.506;2023-07-20T00:03:14;89388.00;;;15.55;99.00
46782;BME280;32541;46.298;11.506;2023-07-20T00:05:43;89382.47;;;15.55;98.95
46782;BME280;32541;46.298;11.506;2023-07-20T00:08:09;89389.41;;;15.43;99.49
46782;BME280;32541;46.298;11.506;2023-07-20T00:10:34;89393.31;;;15.38;98.89
46782;BME280;32541;46.298;11.506;2023-07-20T00:12:59;89390.47;;;15.49;99.47
46782;BME280;32541;46.298;11.506;2023-07-20T00:15:25;89388.97;;;15.21;99.60
46782;BME280;32541;46.298;11.506;2023-07-20T00:17:50;89385.69;;;15.25;100.00
46782;BME280;32541;46.298;11.506;2023-07-20T00:20:15;89381.19;;;15.31;99.98
46782;BME280;32541;46.298;11.506;2023-07-20T00:22:41;89387.75;;;15.24;99.93
46782;BME280;32541;46.298;11.506;2023-07-20T00:25:06;89388.13;;;15.05;100.00
46782;BME280;32541;46.298;11.506;2023-07-20T00:27:32;89398.06;;;14.96;100.00
46782;BME280;32541;46.298;11.506;2023-07-20T00:29:57;89394.03;;;14.86;100.00
46782;BME280;32541;46.298;11.506;2023-07-20T00:32:22;89389.47;;;14.79;100.00
46782;BME280;32541;46.298;11.506;2023-07-20T00:34:48;89381.44;;;14.96;100.00
46782;BME280;32541;46.298;11.506;2023-07-20T00:37:13;89382.78;;;14.95;100.00
46782;BME280;32541;46.298;11.506;2023-07-20T00:39:38;89380.94;;;15.00;100.00
46782;BME280;32541;46.298;11.506;2023-07-20T00:42:04;89400.53;;;15.04;100.00
46782;BME280;32541;46.298;11.506;2023-07-20T00:44:30;89406.16;;;15.06;100.00
46782;BME280;32541;46.298;11.506;2023-07-20T00:46:55;89406.63;;;15.14;100.00
46782;BME280;32541;46.298;11.506;2023-07-20T00:49:21;89402.72;;;15.19;100.00
46782;BME280;32541;46.298;11.506;2023-07-20T00:51:48;89403.84;;;15.14;100.00
46782;BME280;32541;46.298;11.506;2023-07-20T00:54:14;89402.00;;;15.19;100.00
46782;BME280;32541;46.298;11.506;2023-07-20T00:56:40;89408.25;;;15.19;100.00
46782;BME280;32541;46.298;11.506;2023-07-20T00:59:05;89409.91;;;15.24;99.96
46782;BME280;32541;46.298;11.506;2023-07-20T01:01:30;89407.94;;;15.13;100.00
46782;BME280;32541;46.298;11.506;2023-07-20T01:03:56;89408.25;;;15.19;100.00
46782;BME280;32541;46.298;11.506;2023-07-20T01:06:26;89407.63;;;15.07;100.00
46782;BME280;32541;46.298;11.506;2023-07-20T01:11:37;89399.97;;;14.94;100.00
46782;BME280;32541;46.298;11.506;2023-07-20T01:14:04;89406.66;;;14.89;100.00
46782;BME280;32541;46.298;11.506;2023-07-20T01:16:30;89406.41;;;14.85;100.00
46782;BME280;32541;46.298;11.506;2023-07-20T01:18:55;89411.75;;;14.81;100.00
46782;BME280;32541;46.298;11.506;2023-07-20T01:21:26;89406.38;;;14.71;100.00
46782;BME280;32541;46.298;11.506;2023-07-20T01:24:26;89399.00;;;14.76;100.00
46782;BME280;32541;46.298;11.506;2023-07-20T01:32:47;89404.06;;;14.54;100.00
46782;BME280;32541;46.298;11.506;2023-07-20T01:35:15;89407.88;;;14.61;100.00
46782;BME280;32541;46.298;11.506;2023-07-20T01:37:45;89414.56;;;14.44;100.00
46782;BME280;32541;46.298;11.506;2023-07-20T01:40:13;89402.97;;;14.34;100.00
46782;BME280;32541;46.298;11.506;2023-07-20T01:42:43;89396.09;;;14.23;100.00
46782;BME280;32541;46.298;11.506;2023-07-20T01:45:10;89398.88;;;14.23;100.00
46782;BME280;32541;46.298;11.506;2023-07-20T01:47:35;89401.53;;;14.21;100.00
46782;BME280;32541;46.298;11.506;2023-07-20T01:50:00;89397.16;;;14.30;100.00
46782;BME280;32541;46.298;11.506;2023-07-20T01:52:26;89396.00;;;14.21;100.00
46782;BME280;32541;46.298;11.506;2023-07-20T01:54:51;89397.22;;;14.18;100.00
46782;BME280;32541;46.298;11.506;2023-07-20T01:57:16;89394.53;;;14.20;100.00
46782;BME280;32541;46.298;11.506;2023-07-20T01:59:42;89393.72;;;14.18;100.00
46782;BME280;32541;46.298;11.506;2023-07-20T02:02:08;89399.97;;;14.18;100.00
46782;BME280;32541;46.298;11.506;2023-07-20T02:04:33;89403.72;;;14.11;100.00
46782;BME280;32541;46.298;11.506;2023-07-20T02:06:58;89400.47;;;14.15;100.00
46782;BME280;32541;46.298;11.506;2023-07-20T02:09:24;89398.66;;;14.19;100.00
46782;BME280;32541;46.298;11.506;2023-07-20T02:11:50;89392.00;;;14.24;100.00
46782;BME280;32541;46.298;11.506;2023-07-20T02:14:15;89395.41;;;14.11;100.00
46782;BME280;32541;46.298;11.506;2023-07-20T02:16:40;89389.53;;;14.05;100.00
46782;BME280;32541;46.298;11.506;2023-07-20T02:19:06;89390.66;;;14.00;100.00
46782;BME280;32541;46.298;11.506;2023-07-20T02:21:32;89386.56;;;14.01;100.00
46782;BME280;32541;46.298;11.506;2023-07-20T02:23:57;89388.94;;;14.07;100.00
46782;BME280;32541;46.298;11.506;2023-07-20T02:26:23;89392.31;;;14.05;100.00
46782;BME280;32541;46.298;11.506;2023-07-20T02:28:48;89390.75;;;14.02;100.00
46782;BME280;32541;46.298;11.506;2023-07-20T02:31:13;89398.22;;;14.00;100.00
46782;BME280;32541;46.298;11.506;2023-07-20T02:33:39;89393.81;;;13.83;100.00
46782;BME280;32541;46.298;11.506;2023-07-20T02:36:04;89392.38;;;13.82;100.00
46782;BME280;32541;46.298;11.506;2023-07-20T02:38:29;89391.06;;;13.83;100.00
46782;BME280;32541;46.298;11.506;2023-07-20T02:40:55;89387.69;;;13.84;100.00
46782;BME280;32541;46.298;11.506;2023-07-20T02:43:20;89382.50;;;13.90;100.00
46782;BME280;32541;46.298;11.506;2023-07-20T02:45:45;89393.22;;;13.84;100.00
46782;BME280;32541;46.298;11.506;2023-07-20T02:48:11;89381.72;;;13.65;100.00
46782;BME280;32541;46.298;11.506;2023-07-20T02:50:36;89380.19;;;13.50;100.00
46782;BME280;32541;46.298;11.506;2023-07-20T02:53:02;89381.97;;;13.46;100.00
46782;BME280;32541;46.298;11.506;2023-07-20T02:55:27;89384.38;;;13.51;100.00
46782;BME280;32541;46.298;11.506;2023-07-20T02:57:53;89388.22;;;13.58;100.00
46782;BME280;32541;46.298;11.506;2023-07-20T03:00:18;89390.00;;;13.65;100.00
46782;BME280;32541;46.298;11.506;2023-07-20T03:02:48;89392.78;;;13.65;100.00
46782;BME280;32541;46.298;11.506;2023-07-20T03:05:14;89385.81;;;13.64;100.00
46782;BME280;32541;46.298;11.506;2023-07-20T03:07:39;89402.88;;;13.49;100.00
46782;BME280;32541;46.298;11.506;2023-07-20T03:10:05;89396.50;;;13.46;100.00
46782;BME280;32541;46.298;11.506;2023-07-20T03:12:34;89400.34;;;13.53;100.00
46782;BME280;32541;46.298;11.506;2023-07-20T03:15:01;89404.91;;;13.48;100.00
46782;BME280;32541;46.298;11.506;2023-07-20T03:17:26;89407.69;;;13.36;100.00
46782;BME280;32541;46.298;11.506;2023-07-20T03:19:52;89403.84;;;13.42;100.00
46782;BME280;32541;46.298;11.506;2023-07-20T03:22:17;89404.56;;;13.30;100.00
46782;BME280;32541;46.298;11.506;2023-07-20T03:24:43;89399.03;;;13.30;100.00
46782;BME280;32541;46.298;11.506;2023-07-20T03:27:08;89403.84;;;13.42;100.00
46782;BME280;32541;46.298;11.506;2023-07-20T03:29:34;89402.31;;;13.27;100.00
46782;BME280;32541;46.298;11.506;2023-07-20T03:32:00;89402.31;;;13.27;100.00
46782;BME280;32541;46.298;11.506;2023-07-20T03:34:25;89405.53;;;13.23;100.00
46782;BME280;32541;46.298;11.506;2023-07-20T03:36:50;89407.94;;;13.17;100.00
46782;BME280;32541;46.298;11.506;2023-07-20T03:39:16;89414.03;;;13.16;100.00
46782;BME280;32541;46.298;11.506;2023-07-20T03:41:41;89415.38;;;13.26;100.00
46782;BME280;32541;46.298;11.506;2023-07-20T03:44:08;89408.41;;;13.25;100.00
46782;BME280;32541;46.298;11.506;2023-07-20T03:46:33;89409.63;;;13.22;100.00
46782;BME280;32541;46.298;11.506;2023-07-20T03:48:59;89414.66;;;13.26;100.00
46782;BME280;32541;46.298;11.506;2023-07-20T03:51:26;89415.25;;;13.24;100.00
46782;BME280;32541;46.298;11.506;2023-07-20T03:53:51;89423.41;;;13.22;100.00
46782;BME280;32541;46.298;11.506;2023-07-20T03:56:17;89413.69;;;13.21;100.00
46782;BME280;32541;46.298;11.506;2023-07-20T03:58:42;89423.88;;;13.30;100.00
46782;BME280;32541;46.298;11.506;2023-07-20T04:01:08;89421.84;;;13.31;100.00
46782;BME280;32541;46.298;11.506;2023-07-20T04:03:35;89425.69;;;13.26;100.00
46782;BME280;32541;46.298;11.506;2023-07-20T04:06:00;89418.38;;;13.30;100.00
46782;BME280;32541;46.298;11.506;2023-07-20T04:08:26;89420.44;;;13.30;100.00
46782;BME280;32541;46.298;11.506;2023-07-20T04:10:51;89420.28;;;13.28;100.00
46782;BME280;32541;46.298;11.506;2023-07-20T04:13:17;89419.56;;;13.27;100.00
46782;BME280;32541;46.298;11.506;2023-07-20T04:15:42;89414.53;;;13.24;100.00
46782;BME280;32541;46.298;11.506;2023-07-20T04:18:08;89421.97;;;13.21;100.00
46782;BME280;32541;46.298;11.506;2023-07-20T04:20:33;89422.22;;;13.25;100.00
46782;BME280;32541;46.298;11.506;2023-07-20T04:22:59;89418.88;;;13.27;100.00
46782;BME280;32541;46.298;11.506;2023-07-20T04:25:24;89421.00;;;13.40;100.00
46782;BME280;32541;46.298;11.506;2023-07-20T04:27:50;89416.22;;;13.41;100.00
46782;BME280;32541;46.298;11.506;2023-07-20T04:30:17;89426.78;;;13.32;100.00
46782;BME280;32541;46.298;11.506;2023-07-20T04:32:45;89430.75;;;13.29;100.00
46782;BME280;32541;46.298;11.506;2023-07-20T04:36:02;89431.34;;;13.28;100.00
46782;BME280;32541;46.298;11.506;2023-07-20T04:38:02;89428.22;;;13.33;100.00
46782;BME280;32541;46.298;11.506;2023-07-20T04:40:27;89428.22;;;13.33;100.00
46782;BME280;32541;46.298;11.506;2023-07-20T04:42:53;89436.84;;;13.40;100.00
46782;BME280;32541;46.298;11.506;2023-07-20T04:45:18;89430.28;;;13.33;100.00
46782;BME280;32541;46.298;11.506;2023-07-20T04:47:44;89432.53;;;13.25;100.00
46782;BME280;32541;46.298;11.506;2023-07-20T04:50:09;89436.03;;;13.25;100.00
46782;BME280;32541;46.298;11.506;2023-07-20T04:52:35;89429.06;;;13.24;100.00
46782;BME280;32541;46.298;11.506;2023-07-20T04:55:00;89435.06;;;13.21;100.00
46782;BME280;32541;46.298;11.506;2023-07-20T04:57:26;89430.97;;;13.22;100.00
46782;BME280;32541;46.298;11.506;2023-07-20T04:59:52;89431.94;;;13.26;100.00
46782;BME280;32541;46.298;11.506;2023-07-20T05:02:17;89437.47;;;13.26;100.00
46782;BME280;32541;46.298;11.506;2023-07-20T05:04:43;89433.63;;;13.31;100.00
46782;BME280;32541;46.298;11.506;2023-07-20T05:07:08;89440.81;;;13.36;100.00
46782;BME280;32541;46.298;11.506;2023-07-20T05:09:33;89435.31;;;13.36;100.00
46782;BME280;32541;46.298;11.506;2023-07-20T05:11:59;89429.56;;;13.44;100.00
46782;BME280;32541;46.298;11.506;2023-07-20T05:14:24;89435.78;;;13.56;100.00
46782;BME280;32541;46.298;11.506;2023-07-20T05:16:49;89435.88;;;13.70;100.00
46782;BME280;32541;46.298;11.506;2023-07-20T05:19:15;89436.47;;;13.91;100.00
46782;BME280;32541;46.298;11.506;2023-07-20T05:21:40;89430.88;;;14.15;100.00
46782;BME280;32541;46.298;11.506;2023-07-20T05:24:06;89428.44;;;14.32;100.00
46782;BME280;32541;46.298;11.506;2023-07-20T05:26:31;89430.22;;;14.39;100.00
46782;BME280;32541;46.298;11.506;2023-07-20T05:28:58;89427.63;;;14.55;100.00
46782;BME280;32541;46.298;11.506;2023-07-20T05:31:23;89430.13;;;14.63;100.00
46782;BME280;32541;46.298;11.506;2023-07-20T05:36:58;89420.72;;;14.68;100.00
46782;BME280;32541;46.298;11.506;2023-07-20T05:39:23;89429.06;;;14.56;100.00
46782;BME280;32541;46.298;11.506;2023-07-20T05:41:50;89422.13;;;14.43;100.00
46782;BME280;32541;46.298;11.506;2023-07-20T05:44:19;89425.91;;;14.36;100.00
46782;BME280;32541;46.298;11.506;2023-07-20T05:46:53;89418.81;;;14.33;100.00
46782;BME280;32541;46.298;11.506;2023-07-20T05:49:21;89423.63;;;14.33;100.00
46782;BME280;32541;46.298;11.506;2023-07-20T05:51:47;89431.56;;;14.38;100.00
46782;BME280;32541;46.298;11.506;2023-07-20T05:54:12;89432.31;;;14.16;100.00
46782;BME280;32541;46.298;11.506;2023-07-20T05:56:38;89428.94;;;14.17;100.00
46782;BME280;32541;46.298;11.506;2023-07-20T05:59:03;89426.97;;;14.31;100.00
46782;BME280;32541;46.298;11.506;2023-07-20T06:01:28;89428.78;;;14.38;100.00
46782;BME280;32541;46.298;11.506;2023-07-20T06:03:54;89426.25;;;14.42;100.00
46782;BME280;32541;46.298;11.506;2023-07-20T06:06:19;89427.81;;;14.45;100.00
46782;BME280;32541;46.298;11.506;2023-07-20T06:08:45;89422.59;;;14.52;100.00
46782;BME280;32541;46.298;11.506;2023-07-20T06:11:11;89416.56;;;14.55;100.00
46782;BME280;32541;46.298;11.506;2023-07-20T06:13:36;89421.41;;;14.55;100.00
46782;BME280;32541;46.298;11.506;2023-07-20T06:16:03;89426.19;;;14.54;100.00
46782;BME280;32541;46.298;11.506;2023-07-20T06:18:29;89417.63;;;14.62;100.00
46782;BME280;32541;46.298;11.506;2023-07-20T06:20:56;89415.06;;;14.66;100.00
46782;BME280;32541;46.298;11.506;2023-07-20T06:23:22;89414.28;;;14.77;100.00
46782;BME280;32541;46.298;11.506;2023-07-20T06:25:47;89411.19;;;14.71;100.00
46782;BME280;32541;46.298;11.506;2023-07-20T06:28:13;89413.31;;;14.84;100.00
46782;BME280;32541;46.298;11.506;2023-07-20T06:30:39;89407.19;;;14.99;100.00
46782;BME280;32541;46.298;11.506;2023-07-20T06:33:05;89406.41;;;15.10;100.00
46782;BME280;32541;46.298;11.506;2023-07-20T06:35:30;89410.72;;;15.13;100.00
46782;BME280;32541;46.298;11.506;2023-07-20T06:37:55;89411.22;;;15.10;100.00
46782;BME280;32541;46.298;11.506;2023-07-20T06:40:21;89396.16;;;15.26;100.00
46782;BME280;32541;46.298;11.506;2023-07-20T06:42:46;89402.31;;;15.38;100.00
46782;BME280;32541;46.298;11.506;2023-07-20T06:45:12;89399.09;;;15.55;100.00
46782;BME280;32541;46.298;11.506;2023-07-20T06:47:38;89402.09;;;15.73;100.00
46782;BME280;32541;46.298;11.506;2023-07-20T06:50:06;89407.53;;;15.85;100.00
46782;BME280;32541;46.298;11.506;2023-07-20T06:52:32;89405.97;;;16.09;100.00
46782;BME280;32541;46.298;11.506;2023-07-20T06:54:57;89398.25;;;16.21;98.54
46782;BME280;32541;46.298;11.506;2023-07-20T06:57:22;89394.69;;;16.34;96.52
46782;BME280;32541;46.298;11.506;2023-07-20T06:59:48;89388.50;;;16.49;96.12
46782;BME280;32541;46.298;11.506;2023-07-20T07:02:13;89391.63;;;16.71;95.85
46782;BME280;32541;46.298;11.506;2023-07-20T07:04:39;89394.25;;;16.83;95.28
46782;BME280;32541;46.298;11.506;2023-07-20T07:07:05;89385.53;;;17.04;95.15
46782;BME280;32541;46.298;11.506;2023-07-20T07:09:31;89389.22;;;17.24;94.32
46782;BME280;32541;46.298;11.506;2023-07-20T07:11:56;89384.38;;;17.25;90.68
46782;BME280;32541;46.298;11.506;2023-07-20T07:14:22;89392.00;;;17.40;88.79
46782;BME280;32541;46.298;11.506;2023-07-20T07:16:48;89387.44;;;17.46;88.12
46782;BME280;32541;46.298;11.506;2023-07-20T07:19:14;89391.16;;;17.66;87.46
46782;BME280;32541;46.298;11.506;2023-07-20T07:21:40;89386.09;;;17.79;86.08
46782;BME280;32541;46.298;11.506;2023-07-20T07:24:06;89383.22;;;17.92;86.51
46782;BME280;32541;46.298;11.506;2023-07-20T07:26:33;89380.03;;;18.00;85.00
46782;BME280;32541;46.298;11.506;2023-07-20T07:28:58;89382.00;;;18.13;82.46
46782;BME280;32541;46.298;11.506;2023-07-20T07:31:28;89376.28;;;18.26;81.42
46782;BME280;32541;46.298;11.506;2023-07-20T07:33:54;89378.31;;;18.42;82.63
46782;BME280;32541;46.298;11.506;2023-07-20T07:36:19;89371.63;;;18.64;80.56
46782;BME280;32541;46.298;11.506;2023-07-20T07:38:44;89376.28;;;18.77;78.29
46782;BME280;32541;46.298;11.506;2023-07-20T07:41:10;89378.47;;;18.97;77.65
46782;BME280;32541;46.298;11.506;2023-07-20T07:43:35;89369.44;;;19.16;78.67
46782;BME280;32541;46.298;11.506;2023-07-20T07:46:01;89372.06;;;19.29;79.98
46782;BME280;32541;46.298;11.506;2023-07-20T07:48:27;89370.44;;;19.42;76.28
46782;BME280;32541;46.298;11.506;2023-07-20T07:50:53;89371.69;;;19.57;77.77
46782;BME280;32541;46.298;11.506;2023-07-20T07:53:19;89371.38;;;19.86;78.25
46782;BME280;32541;46.298;11.506;2023-07-20T07:55:47;89371.63;;;19.94;77.80
46782;BME280;32541;46.298;11.506;2023-07-20T07:58:12;89367.41;;;19.93;77.31
46782;BME280;32541;46.298;11.506;2023-07-20T08:00:38;89370.56;;;20.03;78.43
46782;BME280;32541;46.298;11.506;2023-07-20T08:03:06;89373.34;;;20.23;76.68
46782;BME280;32541;46.298;11.506;2023-07-20T08:05:33;89362.53;;;20.33;78.47
46782;BME280;32541;46.298;11.506;2023-07-20T08:08:00;89361.91;;;20.56;76.12
46782;BME280;32541;46.298;11.506;2023-07-20T08:10:26;89362.25;;;20.66;78.79
46782;BME280;32541;46.298;11.506;2023-07-20T08:12:51;89355.16;;;20.85;79.62
46782;BME280;32541;46.298;11.506;2023-07-20T08:15:17;89348.72;;;21.02;76.75
46782;BME280;32541;46.298;11.506;2023-07-20T08:17:42;89352.75;;;21.19;74.22
46782;BME280;32541;46.298;11.506;2023-07-20T08:20:10;89349.66;;;21.56;76.58
46782;BME280;32541;46.298;11.506;2023-07-20T08:22:38;89342.28;;;21.67;77.21
46782;BME280;32541;46.298;11.506;2023-07-20T08:25:06;89347.91;;;21.67;74.37
46782;BME280;32541;46.298;11.506;2023-07-20T08:27:31;89345.38;;;21.53;72.96
46782;BME280;32541;46.298;11.506;2023-07-20T08:29:56;89345.63;;;21.37;71.04
46782;BME280;32541;46.298;11.506;2023-07-20T08:32:22;89345.13;;;21.21;71.74
46782;BME280;32541;46.298;11.506;2023-07-20T08:34:47;89340.84;;;20.96;71.60
46782;BME280;32541;46.298;11.506;2023-07-20T08:37:13;89333.72;;;21.13;76.40
46782;BME280;32541;46.298;11.506;2023-07-20T08:39:38;89338.03;;;21.40;67.60
46782;BME280;32541;46.298;11.506;2023-07-20T08:42:04;89338.47;;;21.56;64.70
46782;BME280;32541;46.298;11.506;2023-07-20T08:44:35;89328.84;;;21.61;66.18
46782;BME280;32541;46.298;11.506;2023-07-20T08:47:02;89328.41;;;21.94;67.61
46782;BME280;32541;46.298;11.506;2023-07-20T08:49:30;89333.41;;;22.24;65.03
46782;BME280;32541;46.298;11.506;2023-07-20T08:51:56;89328.16;;;22.38;63.29
46782;BME280;32541;46.298;11.506;2023-07-20T08:54:23;89320.00;;;22.48;64.74
46782;BME280;32541;46.298;11.506;2023-07-20T08:56:49;89317.75;;;22.68;62.81
46782;BME280;32541;46.298;11.506;2023-07-20T08:59:17;89317.34;;;22.54;63.13
46782;BME280;32541;46.298;11.506;2023-07-20T09:01:44;89320.56;;;22.42;66.12
46782;BME280;32541;46.298;11.506;2023-07-20T09:04:10;89317.44;;;22.56;61.45
46782;BME280;32541;46.298;11.506;2023-07-20T09:06:36;89325.09;;;22.28;59.52
46782;BME280;32541;46.298;11.506;2023-07-20T09:09:02;89316.88;;;22.61;58.87
46782;BME280;32541;46.298;11.506;2023-07-20T09:11:27;89319.44;;;22.79;56.68
46782;BME280;32541;46.298;11.506;2023-07-20T09:14:03;89309.88;;;22.90;53.73
46782;BME280;32541;46.298;11.506;2023-07-20T09:16:29;89310.19;;;23.04;55.76
46782;BME280;32541;46.298;11.506;2023-07-20T09:18:57;89308.34;;;23.45;56.33
46782;BME280;32541;46.298;11.506;2023-07-20T09:21:23;89308.50;;;23.53;52.13
46782;BME280;32541;46.298;11.506;2023-07-20T09:23:48;89310.72;;;23.58;56.13
46782;BME280;32541;46.298;11.506;2023-07-20T09:26:18;89318.50;;;23.60;53.50
46782;BME280;32541;46.298;11.506;2023-07-20T09:28:48;89311.63;;;23.67;54.62
46782;BME280;32541;46.298;11.506;2023-07-20T09:31:18;89313.59;;;23.60;52.67
46782;BME280;32541;46.298;11.506;2023-07-20T09:33:44;89303.84;;;23.63;48.69
46782;BME280;32541;46.298;11.506;2023-07-20T09:36:10;89316.44;;;23.96;45.55
46782;BME280;32541;46.298;11.506;2023-07-20T09:38:39;89304.53;;;24.33;45.54
46782;BME280;32541;46.298;11.506;2023-07-20T09:41:06;89303.16;;;24.35;41.63
46782;BME280;32541;46.298;11.506;2023-07-20T09:43:32;89301.63;;;24.27;43.75
46782;BME280;32541;46.298;11.506;2023-07-20T09:45:59;89303.97;;;24.05;44.85
46782;BME280;32541;46.298;11.506;2023-07-20T09:48:25;89301.75;;;24.36;47.16
46782;BME280;32541;46.298;11.506;2023-07-20T09:50:54;89297.13;;;24.12;46.94
46782;BME280;32541;46.298;11.506;2023-07-20T09:53:20;89293.28;;;23.98;51.37
46782;BME280;32541;46.298;11.506;2023-07-20T09:55:47;89295.91;;;24.23;45.46
46782;BME280;32541;46.298;11.506;2023-07-20T09:58:13;89291.97;;;24.37;45.14
46782;BME280;32541;46.298;11.506;2023-07-20T10:00:40;89286.97;;;24.73;45.30
46782;BME280;32541;46.298;11.506;2023-07-20T10:03:08;89295.78;;;24.95;43.07
46782;BME280;32541;46.298;11.506;2023-07-20T10:05:40;89294.50;;;25.02;48.58
46782;BME280;32541;46.298;11.506;2023-07-20T10:08:11;89283.56;;;25.22;50.18
46782;BME280;32541;46.298;11.506;2023-07-20T10:10:38;89289.75;;;25.13;43.93
46782;BME280;32541;46.298;11.506;2023-07-20T10:13:08;89289.28;;;25.28;44.91
46782;BME280;32541;46.298;11.506;2023-07-20T10:15:50;89294.81;;;24.78;48.10
46782;BME280;32541;46.298;11.506;2023-07-20T10:21:06;89278.88;;;25.39;47.75
46782;BME280;32541;46.298;11.506;2023-07-20T10:23:33;89283.38;;;25.10;49.41
46782;BME280;32541;46.298;11.506;2023-07-20T10:26:01;89282.28;;;25.29;48.39
46782;BME280;32541;46.298;11.506;2023-07-20T10:28:27;89283.66;;;25.30;48.96
46782;BME280;32541;46.298;11.506;2023-07-20T10:30:53;89286.78;;;25.49;48.23
46782;BME280;32541;46.298;11.506;2023-07-20T10:33:19;89281.00;;;25.88;49.33
46782;BME280;32541;46.298;11.506;2023-07-20T10:36:00;89280.63;;;26.16;43.49
46782;BME280;32541;46.298;11.506;2023-07-20T10:43:44;89281.09;;;25.45;44.38
46782;BME280;32541;46.298;11.506;2023-07-20T10:46:11;89292.44;;;25.05;43.86
46782;BME280;32541;46.298;11.506;2023-07-20T10:49:03;89299.09;;;25.25;46.44
46782;BME280;32541;46.298;11.506;2023-07-20T10:51:30;89278.03;;;25.30;46.51
46782;BME280;32541;46.298;11.506;2023-07-20T10:53:56;89283.81;;;25.38;43.54
46782;BME280;32541;46.298;11.506;2023-07-20T10:56:26;89287.06;;;25.69;45.63
46782;BME280;32541;46.298;11.506;2023-07-20T10:58:59;89285.00;;;25.23;42.30
46782;BME280;32541;46.298;11.506;2023-07-20T11:01:29;89289.13;;;25.18;42.46
46782;BME280;32541;46.298;11.506;2023-07-20T11:03:58;89276.75;;;25.37;43.23
46782;BME280;32541;46.298;11.506;2023-07-20T11:09:07;89283.06;;;25.86;41.44
46782;BME280;32541;46.298;11.506;2023-07-20T11:11:39;89280.50;;;26.08;39.78
46782;BME280;32541;46.298;11.506;2023-07-20T11:19:04;89259.94;;;26.58;40.66
46782;BME280;32541;46.298;11.506;2023-07-20T11:21:36;89261.31;;;26.55;43.64
46782;BME280;32541;46.298;11.506;2023-07-20T11:24:06;89260.06;;;26.72;43.98
46782;BME280;32541;46.298;11.506;2023-07-20T11:26:53;89257.59;;;26.36;40.28
46782;BME280;32541;46.298;11.506;2023-07-20T11:29:20;89258.59;;;26.67;43.28
46782;BME280;32541;46.298;11.506;2023-07-20T11:31:46;89260.50;;;26.42;41.09
46782;BME280;32541;46.298;11.506;2023-07-20T11:34:17;89259.69;;;26.33;40.91
46782;BME280;32541;46.298;11.506;2023-07-20T11:36:44;89262.84;;;26.68;46.27
46782;BME280;32541;46.298;11.506;2023-07-20T11:39:11;89254.72;;;27.02;40.42
46782;BME280;32541;46.298;11.506;2023-07-20T11:41:38;89268.50;;;26.70;43.82
46782;BME280;32541;46.298;11.506;2023-07-20T11:44:04;89266.91;;;26.50;40.80
46782;BME280;32541;46.298;11.506;2023-07-20T11:46:31;89256.34;;;25.89;41.20
46782;BME280;32541;46.298;11.506;2023-07-20T11:48:58;89261.50;;;26.09;40.72
46782;BME280;32541;46.298;11.506;2023-07-20T11:51:26;89254.22;;;26.49;42.90
46782;BME280;32541;46.298;11.506;2023-07-20T11:53:52;89262.47;;;26.31;43.11
46782;BME280;32541;46.298;11.506;2023-07-20T11:56:17;89247.63;;;26.25;41.99
46782;BME280;32541;46.298;11.506;2023-07-20T11:58:46;89247.84;;;26.47;45.12
46782;BME280;32541;46.298;11.506;2023-07-20T12:01:12;89256.72;;;26.91;47.28
46782;BME280;32541;46.298;11.506;2023-07-20T12:03:39;89244.97;;;27.21;46.91
46782;BME280;32541;46.298;11.506;2023-07-20T12:06:08;89240.22;;;27.46;44.07
46782;BME280;32541;46.298;11.506;2023-07-20T12:08:33;89242.56;;;27.86;44.64
46782;BME280;32541;46.298;11.506;2023-07-20T12:10:59;89229.97;;;28.07;42.99
46782;BME280;32541;46.298;11.506;2023-07-20T12:13:36;89228.94;;;26.64;39.92
46782;BME280;32541;46.298;11.506;2023-07-20T12:16:12;89237.28;;;26.49;41.28
46782;BME280;32541;46.298;11.506;2023-07-20T12:18:38;89224.50;;;26.40;41.82
46782;BME280;32541;46.298;11.506;2023-07-20T12:21:05;89222.06;;;26.11;41.59
46782;BME280;32541;46.298;11.506;2023-07-20T12:23:35;89219.16;;;25.45;42.30
46782;BME280;32541;46.298;11.506;2023-07-20T12:26:02;89212.00;;;25.37;44.00
46782;BME280;32541;46.298;11.506;2023-07-20T12:28:28;89212.66;;;25.34;45.06
46782;BME280;32541;46.298;11.506;2023-07-20T12:30:54;89208.91;;;25.69;45.82
46782;BME280;32541;46.298;11.506;2023-07-20T12:33:22;89204.44;;;26.10;46.30
46782;BME280;32541;46.298;11.506;2023-07-20T12:35:48;89207.56;;;26.36;43.04
46782;BME280;32541;46.298;11.506;2023-07-20T12:38:14;89200.38;;;26.23;43.39
46782;BME280;32541;46.298;11.506;2023-07-20T12:40:39;89210.88;;;26.15;42.44
46782;BME280;32541;46.298;11.506;2023-07-20T12:43:05;89202.56;;;25.69;43.18
46782;BME280;32541;46.298;11.506;2023-07-20T12:45:31;89197.75;;;25.77;43.79
46782;BME280;32541;46.298;11.506;2023-07-20T12:47:57;89198.09;;;26.10;42.66
46782;BME280;32541;46.298;11.506;2023-07-20T12:50:22;89195.03;;;26.54;45.66
46782;BME280;32541;46.298;11.506;2023-07-20T12:52:48;89204.00;;;25.70;40.84
46782;BME280;32541;46.298;11.506;2023-07-20T12:55:13;89191.63;;;25.97;43.56
46782;BME280;32541;46.298;11.506;2023-07-20T12:57:38;89200.44;;;26.31;41.38
46782;BME280;32541;46.298;11.506;2023-07-20T13:00:05;89192.59;;;26.20;40.99
46782;BME280;32541;46.298;11.506;2023-07-20T13:02:33;89200.31;;;26.17;41.67
46782;BME280;32541;46.298;11.506;2023-07-20T13:04:59;89192.88;;;25.84;43.26
46782;BME280;32541;46.298;11.506;2023-07-20T13:07:38;89190.25;;;25.98;43.68
46782;BME280;32541;46.298;11.506;2023-07-20T13:10:05;89195.50;;;26.28;43.04